Time;durP1;ratioP1;P1;durP2;ratioP2;P2;SDS_P1;SDS_P2;PMS_P1;PMS_P2;Temp;Humidity;BMP_temperature;BMP_pressure;BME280_temperature;BME280_humidity;BME280_pressure;Samples;Min_cycle;Max_cycle;Signal;HPM_P1;HPM_P2
2022/06/27 00:01:35;;;;;;;4.25;3.55;;;;;;;-145.69;100.00;70765.69;5076225;28;20210;-76
2022/06/27 00:04:01;;;;;;;4.65;4.00;;;;;;;-145.69;100.00;70811.44;5076040;28;20210;-76
2022/06/27 00:06:30;;;;;;;4.65;3.80;;;;;;;-145.69;100.00;70843.28;5075924;28;20637;-76
2022/06/27 00:08:56;;;;;;;6.28;4.70;;;;;;;-145.69;100.00;70861.19;5075913;28;20199;-75
2022/06/27 00:11:23;;;;;;;17.70;6.60;;;;;;;-145.69;100.00;70893.03;5075724;28;20199;-75
2022/06/27 00:13:49;;;;;;;11.38;5.68;;;;;;;-145.69;100.00;70924.84;5075343;28;20206;-74
2022/06/27 00:16:16;;;;;;;16.80;6.72;;;;;;;-145.69;100.00;70922.88;5075805;28;20199;-73
2022/06/27 00:18:43;;;;;;;5.53;4.75;;;;;;;-145.69;100.00;70837.31;5075359;28;20317;-73
2022/06/27 00:21:09;;;;;;;8.82;5.78;;;;;;;-145.69;100.00;70769.66;5075721;28;20203;-74
2022/06/27 00:23:37;;;;;;;4.95;3.72;;;;;;;-145.69;100.00;70658.25;5075493;28;20220;-74
2022/06/27 00:26:04;;;;;;;4.70;2.35;;;;;;;-145.69;100.00;70534.91;5075346;28;20661;-73
2022/06/27 00:28:30;;;;;;;2.83;1.65;;;;;;;-145.69;100.00;70550.81;5075555;28;20202;-74
2022/06/27 00:30:57;;;;;;;1.58;1.48;;;;;;;-145.69;100.00;70630.41;5075347;28;20203;-74
2022/06/27 00:33:23;;;;;;;1.77;1.60;;;;;;;-145.69;100.00;70709.97;5074683;28;20439;-76
2022/06/27 00:35:50;;;;;;;2.00;1.73;;;;;;;-145.69;100.00;70745.78;5075294;28;20244;-75
2022/06/27 00:38:17;;;;;;;1.48;1.38;;;;;;;-145.69;100.00;70721.91;5075169;28;20303;-75
2022/06/27 00:40:45;;;;;;;1.92;1.40;;;;;;;-145.69;100.00;70725.91;5075174;28;20205;-76
2022/06/27 00:43:12;;;;;;;2.83;1.70;;;;;;;-145.69;100.00;70739.81;5075090;28;20286;-73
2022/06/27 00:45:38;;;;;;;1.50;1.40;;;;;;;-145.69;100.00;70747.78;5060924;28;20206;-74
2022/06/27 00:48:05;;;;;;;1.50;1.23;;;;;;;-145.69;100.00;70757.72;5054878;28;20250;-74
2022/06/27 00:50:32;;;;;;;1.65;1.42;;;;;;;-145.69;100.00;70759.72;5055108;28;20211;-74
2022/06/27 00:52:58;;;;;;;2.65;1.60;;;;;;;-145.69;100.00;70741.81;5055014;28;20199;-75
2022/06/27 00:55:25;;;;;;;3.88;1.65;;;;;;;-145.69;100.00;70753.75;5054859;28;20199;-73
2022/06/27 00:57:53;;;;;;;3.05;1.83;;;;;;;-145.69;100.00;70777.63;5054546;28;20204;-76
2022/06/27 01:00:21;;;;;;;2.75;2.00;;;;;;;-145.69;100.00;70789.56;5054983;28;20204;-74
2022/06/27 01:02:48;;;;;;;3.58;2.17;;;;;;;-145.69;100.00;70789.56;5054775;28;20209;-73
2022/06/27 01:05:14;;;;;;;2.45;2.05;;;;;;;-145.69;100.00;70793.53;5066250;28;20764;-73
2022/06/27 01:07:41;;;;;;;5.30;2.10;;;;;;;-145.69;100.00;70807.47;5074515;28;20214;-74
2022/06/27 01:10:08;;;;;;;2.45;2.00;;;;;;;-145.69;100.00;70817.41;5074519;28;20203;-73
2022/06/27 01:12:35;;;;;;;3.92;2.47;;;;;;;-145.69;100.00;70807.47;5074147;28;20253;-73
2022/06/27 01:15:05;;;;;;;5.90;2.88;;;;;;;-145.69;100.00;70805.47;5074623;28;20210;-76
2022/06/27 01:17:32;;;;;;;5.40;2.88;;;;;;;-145.69;100.00;70809.47;5074639;28;20203;-74
2022/06/27 01:19:58;;;;;;;4.03;3.10;;;;;;;-145.69;100.00;70801.50;5074303;28;20234;-73
2022/06/27 01:22:26;;;;;;;6.90;2.88;;;;;;;-145.69;100.00;70805.47;5074141;28;20195;-74
2022/06/27 01:24:53;;;;;;;6.05;2.90;;;;;;;-145.69;100.00;70805.47;5074499;28;20206;-76
2022/06/27 01:27:19;;;;;;;5.93;2.83;;;;;;;-145.69;100.00;70805.47;5073687;28;20203;-76
2022/06/27 01:29:45;;;;;;;4.18;2.80;;;;;;;-145.69;100.00;70819.41;5074389;28;20199;-76
2022/06/27 01:32:12;;;;;;;4.63;3.00;;;;;;;-145.69;100.00;70825.38;5074402;28;20612;-77
2022/06/27 01:34:38;;;;;;;4.25;2.83;;;;;;;-145.69;100.00;70825.38;5073233;28;20492;-76
2022/06/27 01:37:05;;;;;;;3.53;2.78;;;;;;;-145.69;100.00;70825.38;5073300;28;20199;-76
2022/06/27 01:39:33;;;;;;;3.80;3.03;;;;;;;-145.69;100.00;70837.31;5074181;28;20284;-76
2022/06/27 01:42:03;;;;;;;3.78;3.22;;;;;;;-145.69;100.00;70829.34;5074184;28;20210;-76
2022/06/27 01:44:32;;;;;;;7.68;3.45;;;;;;;-145.69;100.00;70817.41;5074012;28;20206;-77
2022/06/27 01:47:04;;;;;;;5.43;3.13;;;;;;;-145.69;100.00;70825.38;5073749;28;20234;-76
2022/06/27 01:49:32;;;;;;;3.70;3.08;;;;;;;-145.69;100.00;70815.44;5073746;28;20652;-77
2022/06/27 01:52:00;;;;;;;4.30;3.08;;;;;;;-145.69;100.00;70819.41;5073785;28;20203;-76
2022/06/27 01:54:27;;;;;;;3.55;3.00;;;;;;;-145.69;100.00;70821.41;5074070;28;20340;-77
2022/06/27 01:56:55;;;;;;;3.97;2.80;;;;;;;-145.69;100.00;70823.38;5073944;28;20207;-76
2022/06/27 01:59:23;;;;;;;3.70;2.92;;;;;;;-145.69;100.00;70821.41;5073658;28;20272;-76
2022/06/27 02:01:50;;;;;;;3.90;2.92;;;;;;;-145.69;100.00;70827.38;5073376;28;20195;-76
2022/06/27 02:04:17;;;;;;;3.60;2.90;;;;;;;-145.69;100.00;70841.28;5073840;28;20209;-76
2022/06/27 02:06:46;;;;;;;3.88;3.13;;;;;;;-145.69;100.00;70853.22;5073652;28;20202;-76
2022/06/27 02:09:14;;;;;;;3.85;2.83;;;;;;;-145.69;100.00;70865.16;5072895;28;20199;-76
2022/06/27 02:11:43;;;;;;;3.75;2.83;;;;;;;-145.69;100.00;70865.16;5073559;28;20252;-75
2022/06/27 02:14:11;;;;;;;3.00;2.70;;;;;;;-145.69;100.00;70883.06;5073410;28;20233;-75
2022/06/27 02:16:38;;;;;;;4.63;3.55;;;;;;;-145.69;100.00;70879.09;5073303;28;20222;-75
2022/06/27 02:19:05;;;;;;;9.15;4.55;;;;;;;-145.69;100.00;70881.09;5073012;28;20476;-75
2022/06/27 02:21:32;;;;;;;5.05;3.22;;;;;;;-145.69;100.00;70881.09;5073143;28;20199;-76
2022/06/27 02:23:58;;;;;;;5.07;3.40;;;;;;;-145.69;100.00;70885.06;5073039;28;20199;-75
2022/06/27 02:26:28;;;;;;;8.45;3.47;;;;;;;-145.69;100.00;70893.03;5073263;28;20199;-75
2022/06/27 02:28:55;;;;;;;5.68;3.50;;;;;;;-145.69;100.00;70889.03;5073319;28;20290;-76
2022/06/27 02:31:23;;;;;;;4.38;3.47;;;;;;;-145.69;100.00;70885.06;5073230;28;20195;-76
2022/06/27 02:33:52;;;;;;;4.28;3.10;;;;;;;-145.69;100.00;70885.06;5073236;28;20194;-76
2022/06/27 02:36:22;;;;;;;4.28;3.10;;;;;;;-145.69;100.00;70889.03;5073227;28;20194;-76
2022/06/27 02:38:52;;;;;;;4.57;3.55;;;;;;;-145.69;100.00;70891.03;5072990;28;20219;-76
2022/06/27 02:41:20;;;;;;;3.40;2.90;;;;;;;-145.69;100.00;70893.03;5073103;28;20199;-76
2022/06/27 02:43:52;;;;;;;4.55;3.00;;;;;;;-145.69;100.00;70906.94;5072921;28;20222;-76
2022/06/27 02:46:20;;;;;;;3.72;2.85;;;;;;;-145.69;100.00;70924.84;5071769;28;20198;-76
2022/06/27 02:48:50;;;;;;;3.90;3.10;;;;;;;-145.69;100.00;70912.91;5055178;28;20233;-75
2022/06/27 02:51:21;;;;;;;3.38;2.60;;;;;;;-145.69;100.00;70920.88;5055885;28;20194;-75
2022/06/27 02:53:54;;;;;;;5.45;3.50;;;;;;;-145.69;100.00;70916.91;5072759;28;20187;-76
2022/06/27 02:56:34;;;;;;;3.83;2.90;;;;;;;-145.69;100.00;70924.84;5072732;28;20209;-76
2022/06/27 02:59:09;;;;;;;3.55;3.03;;;;;;;-145.69;100.00;70932.81;5072419;28;20218;-76
2022/06/27 03:01:44;;;;;;;6.05;4.70;;;;;;;-145.69;100.00;70912.91;5072955;28;20204;-76
2022/06/27 03:04:12;;;;;;;331.35;14.63;;;;;;;-145.69;100.00;70910.94;5072665;28;20290;-76
2022/06/27 03:06:42;;;;;;;12.82;4.90;;;;;;;-145.69;100.00;70906.94;5072731;28;20198;-76
2022/06/27 03:09:14;;;;;;;6.90;4.55;;;;;;;-145.69;100.00;70897.00;5072523;28;20206;-76
2022/06/27 03:11:40;;;;;;;6.15;4.65;;;;;;;-145.69;100.00;70897.00;5072990;28;20202;-76
2022/06/27 03:14:09;;;;;;;50.05;7.00;;;;;;;-145.69;100.00;70893.03;5072525;28;20199;-76
2022/06/27 03:16:44;;;;;;;6.95;5.80;;;;;;;-145.69;100.00;70889.03;5072735;28;20198;-76
2022/06/27 03:19:13;;;;;;;8.38;5.80;;;;;;;-145.69;100.00;70875.13;5072561;28;20229;-76
2022/06/27 03:21:41;;;;;;;9.90;3.97;;;;;;;-145.69;100.00;70875.13;5075846;28;20190;-75
2022/06/27 03:24:14;;;;;;;5.63;4.00;;;;;;;-145.69;100.00;70877.09;5076928;28;20205;-76
2022/06/27 03:26:41;;;;;;;3.92;3.50;;;;;;;-145.69;100.00;70871.13;5076874;28;20203;-76
2022/06/27 03:29:12;;;;;;;4.25;3.10;;;;;;;-145.69;100.00;70867.16;5076556;28;20600;-76
2022/06/27 03:31:38;;;;;;;6.10;3.70;;;;;;;-145.69;100.00;70869.16;5076017;28;20426;-76
2022/06/27 03:34:05;;;;;;;5.13;3.30;;;;;;;-145.69;100.00;70887.06;5076685;28;20275;-76
2022/06/27 03:36:33;;;;;;;3.90;3.03;;;;;;;-145.69;100.00;70897.00;5076552;28;20202;-76
2022/06/27 03:38:59;;;;;;;4.60;3.00;;;;;;;-145.69;100.00;70887.06;5076069;28;20535;-76
2022/06/27 03:41:26;;;;;;;3.85;3.45;;;;;;;-145.69;100.00;70881.09;5076256;28;20249;-76
2022/06/27 03:43:57;;;;;;;4.68;3.42;;;;;;;-145.69;100.00;70877.09;5076257;28;20692;-76
2022/06/27 03:46:23;;;;;;;4.82;3.50;;;;;;;-145.69;100.00;70875.13;5075998;28;20202;-76
2022/06/27 03:51:40;;;;;;;6.20;3.30;;;;;;;-145.69;100.00;70867.16;5076073;28;20206;-76
2022/06/27 03:54:07;;;;;;;4.57;3.25;;;;;;;-145.69;100.00;70863.19;5076094;28;20199;-76
2022/06/27 03:56:34;;;;;;;5.30;3.60;;;;;;;-145.69;100.00;70865.16;5076045;28;20202;-76
2022/06/27 03:59:01;;;;;;;10.38;3.25;;;;;;;-145.69;100.00;70869.16;5076080;28;20206;-76
2022/06/27 04:01:27;;;;;;;7.22;3.92;;;;;;;-145.69;100.00;70863.19;5076110;28;20206;-76
2022/06/27 04:03:56;;;;;;;6.45;4.00;;;;;;;-145.69;100.00;70855.22;5076103;28;20209;-76
2022/06/27 04:06:24;;;;;;;5.15;3.92;;;;;;;-145.69;100.00;70857.22;5075953;28;20207;-76
2022/06/27 04:08:55;;;;;;;7.35;5.70;;;;;;;-145.69;100.00;70849.25;5074634;28;20521;-76
2022/06/27 04:11:21;;;;;;;11.00;5.28;;;;;;;-145.69;100.00;70841.28;5075582;28;20612;-76
2022/06/27 04:13:50;;;;;;;7.82;5.32;;;;;;;-145.69;100.00;70841.28;5075647;28;20253;-76
2022/06/27 04:16:17;;;;;;;11.38;4.53;;;;;;;-145.69;100.00;70833.34;5075592;28;20201;-76
2022/06/27 04:18:46;;;;;;;6.70;4.55;;;;;;;-145.69;100.00;70829.34;5075680;28;20289;-76
2022/06/27 04:21:13;;;;;;;5.50;4.13;;;;;;;-145.69;100.00;70823.38;5075389;28;20265;-75
2022/06/27 04:23:40;;;;;;;4.22;3.58;;;;;;;-145.69;100.00;70811.44;5075339;28;20660;-76
2022/06/27 04:26:10;;;;;;;4.57;3.45;;;;;;;-145.69;100.00;70793.53;5075690;28;20199;-76
2022/06/27 04:28:37;;;;;;;4.95;3.40;;;;;;;-145.69;100.00;70789.56;5075577;28;20253;-76
2022/06/27 04:31:04;;;;;;;4.43;3.55;;;;;;;-145.69;100.00;70785.59;5075497;28;20195;-76
2022/06/27 04:33:30;;;;;;;4.28;2.85;;;;;;;-145.69;100.00;70797.53;5074510;28;20244;-76
2022/06/27 04:35:56;;;;;;;4.50;3.13;;;;;;;-145.69;100.00;70809.47;5075277;28;20653;-76
2022/06/27 04:38:23;;;;;;;3.38;2.47;;;;;;;-145.69;100.00;70821.41;5075160;28;20210;-76
2022/06/27 04:40:51;;;;;;;3.28;2.60;;;;;;;-145.69;100.00;70833.34;5075090;28;20262;-76
2022/06/27 04:43:26;;;;;;;3.13;2.40;;;;;;;-145.69;100.00;70833.34;5075359;28;20202;-76
2022/06/27 04:45:56;;;;;;;4.88;2.42;;;;;;;-145.69;100.00;70829.34;5075316;28;20198;-76
2022/06/27 04:48:28;;;;;;;2.75;2.20;;;;;;;-145.69;100.00;70837.31;5074434;28;20227;-76
2022/06/27 04:50:54;;;;;;;4.57;2.10;;;;;;;-145.69;100.00;70829.34;5075045;28;20661;-76
2022/06/27 04:53:21;;;;;;;3.05;2.30;;;;;;;-145.69;100.00;70839.31;5074843;28;20199;-76
2022/06/27 04:55:48;;;;;;;4.00;2.25;;;;;;;-145.69;100.00;70827.38;5057834;28;20195;-76
2022/06/27 04:58:15;;;;;;;2.80;2.45;;;;;;;-145.69;100.00;70827.38;5054821;28;20211;-76
2022/06/27 05:00:43;;;;;;;3.63;2.65;;;;;;;-145.69;100.00;70813.44;5054614;28;20231;-75
2022/06/27 05:03:10;;;;;;;4.28;2.50;;;;;;;-145.69;100.00;70799.50;5074054;28;20596;-76
2022/06/27 05:05:36;;;;;;;5.60;2.60;;;;;;;-145.69;100.00;70801.50;5074720;28;20209;-76
2022/06/27 05:08:03;;;;;;;3.47;2.53;;;;;;;-145.69;100.00;70791.56;5074842;28;20198;-76
2022/06/27 05:10:29;;;;;;;2.28;1.98;;;;;;;-145.69;100.00;70771.66;5074729;28;20205;-76
2022/06/27 05:12:56;;;;;;;1.73;1.63;;;;;;;-145.69;100.00;70723.91;5074590;28;20202;-76
2022/06/27 05:15:22;;;;;;;2.22;2.00;;;;;;;-145.69;100.00;70696.06;5074625;28;20228;-76
2022/06/27 05:17:50;;;;;;;2.35;1.77;;;;;;;-145.69;100.00;70654.28;5074187;28;20191;-76
2022/06/27 05:20:18;;;;;;;2.85;1.45;;;;;;;-145.69;100.00;70638.34;5074600;28;20284;-76
2022/06/27 05:22:44;;;;;;;1.30;0.98;;;;;;;-145.69;100.00;70606.53;5074526;28;20209;-76
2022/06/27 05:25:11;;;;;;;1.42;1.15;;;;;;;-145.69;100.00;70582.66;5074383;28;20564;-76
2022/06/27 05:27:38;;;;;;;2.00;1.27;;;;;;;-145.69;100.00;70602.56;5074518;28;20207;-76
2022/06/27 05:30:05;;;;;;;1.23;1.10;;;;;;;-145.69;100.00;70596.59;5074311;28;20207;-77
2022/06/27 05:32:32;;;;;;;3.45;1.20;;;;;;;-145.69;100.00;70624.44;5074187;28;20206;-76
2022/06/27 05:35:00;;;;;;;1.67;1.15;;;;;;;-145.69;100.00;70630.41;5074337;28;20275;-76
2022/06/27 05:37:27;;;;;;;1.33;1.20;;;;;;;-145.69;100.00;70634.38;5074338;28;20195;-76
2022/06/27 05:39:54;;;;;;;1.25;1.15;;;;;;;-145.69;100.00;70630.41;5073994;28;20226;-77
2022/06/27 05:42:21;;;;;;;1.65;1.20;;;;;;;-145.69;100.00;70610.50;5074203;28;20623;-76
2022/06/27 05:44:47;;;;;;;6.35;1.27;;;;;;;-145.69;100.00;70622.44;5073950;28;20293;-77
2022/06/27 05:47:15;;;;;;;3.28;1.15;;;;;;;-145.69;100.00;70632.38;5073333;28;20227;-77
2022/06/27 05:49:42;;;;;;;1.42;1.10;;;;;;;-145.69;100.00;70626.41;5074022;28;20207;-77
2022/06/27 05:52:10;;;;;;;2.65;1.33;;;;;;;-145.69;100.00;70606.53;5073928;28;20287;-76
2022/06/27 05:54:36;;;;;;;1.30;1.00;;;;;;;-145.69;100.00;70598.56;5073868;28;20202;-76
2022/06/27 05:57:05;;;;;;;1.38;1.20;;;;;;;-145.69;100.00;70588.63;5073850;28;20210;-76
2022/06/27 05:59:33;;;;;;;2.08;0.93;;;;;;;-145.69;100.00;70578.69;5073561;28;20205;-76
2022/06/27 06:02:00;;;;;;;1.75;1.25;;;;;;;-145.69;100.00;70584.66;5073821;28;20561;-76
2022/06/27 06:04:27;;;;;;;3.70;1.50;;;;;;;-145.69;100.00;70586.63;5073516;28;20672;-76
2022/06/27 06:06:54;;;;;;;1.17;0.80;;;;;;;-145.69;100.00;70534.91;5073734;28;20203;-76
2022/06/27 06:09:22;;;;;;;0.90;0.80;;;;;;;-145.69;100.00;70517.00;5073621;28;20198;-77
2022/06/27 06:11:51;;;;;;;2.22;0.80;;;;;;;-145.69;100.00;70491.13;5073516;28;20202;-77
2022/06/27 06:14:19;;;;;;;1.98;1.10;;;;;;;-145.69;100.00;70457.31;5073659;28;20229;-77
2022/06/27 06:16:47;;;;;;;1.08;0.75;;;;;;;-145.69;100.00;70457.31;5073307;28;20195;-76
2022/06/27 06:19:14;;;;;;;0.82;0.70;;;;;;;-145.69;100.00;70443.41;5073504;28;20211;-76
2022/06/27 06:21:45;;;;;;;1.42;0.70;;;;;;;-145.69;100.00;70485.16;5073275;28;20253;-77
2022/06/27 06:24:13;;;;;;;0.85;0.85;;;;;;;-145.69;100.00;70505.06;5073327;28;20272;-76
2022/06/27 06:26:42;;;;;;;1.42;0.80;;;;;;;-145.69;100.00;70530.94;5073168;28;20210;-77
2022/06/27 06:29:14;;;;;;;0.47;0.47;;;;;;;-145.69;100.00;70536.91;5073360;28;20293;-76
2022/06/27 06:31:43;;;;;;;1.10;1.00;;;;;;;-145.69;100.00;70562.75;5073327;28;20210;-77
2022/06/27 06:34:10;;;;;;;5.50;1.80;;;;;;;-145.69;100.00;70664.22;5073396;28;20260;-77
2022/06/27 06:36:38;;;;;;;4.45;2.70;;;;;;;-145.69;100.00;70704.00;5073095;28;20195;-76
2022/06/27 06:39:06;;;;;;;3.20;2.50;;;;;;;-145.69;100.00;70682.13;5072931;28;20284;-76
2022/06/27 06:41:33;;;;;;;4.38;3.42;;;;;;;-145.69;100.00;70678.16;5073139;28;20236;-76
2022/06/27 06:44:05;;;;;;;8.43;3.80;;;;;;;-145.69;100.00;70702.03;5073112;28;20203;-76
2022/06/27 06:46:32;;;;;;;5.28;3.40;;;;;;;-145.69;100.00;70700.03;5072568;28;20230;-76
2022/06/27 06:49:02;;;;;;;3.65;2.90;;;;;;;-145.69;100.00;70702.03;5068915;28;20226;-75
2022/06/27 06:51:31;;;;;;;3.67;2.70;;;;;;;-145.69;100.00;70717.94;5053268;28;20199;-76
2022/06/27 06:53:57;;;;;;;3.38;2.83;;;;;;;-145.69;100.00;70709.97;5053114;28;20199;-76
2022/06/27 06:56:24;;;;;;;8.70;3.33;;;;;;;-145.69;100.00;70737.84;5052566;28;20203;-76
2022/06/27 06:58:53;;;;;;;6.88;4.00;;;;;;;-145.69;100.00;70749.78;5052991;28;20227;-76
2022/06/27 07:01:22;;;;;;;4.72;3.63;;;;;;;-145.69;100.00;70723.91;5052712;28;20223;-76
2022/06/27 07:03:49;;;;;;;6.07;3.33;;;;;;;-145.69;100.00;70662.22;5052850;28;20207;-76
2022/06/27 07:06:17;;;;;;;4.07;3.15;;;;;;;-145.69;100.00;70614.47;5052773;28;20207;-77
2022/06/27 07:08:44;;;;;;;4.70;2.80;;;;;;;-145.69;100.00;70588.63;5052814;28;20253;-77
2022/06/27 07:11:11;;;;;;;2.60;1.90;;;;;;;-145.69;100.00;70610.50;5061202;28;20198;-76
2022/06/27 07:13:40;;;;;;;2.20;1.65;;;;;;;-145.69;100.00;70610.50;5072710;28;20207;-76
2022/06/27 07:16:10;;;;;;;2.40;1.60;;;;;;;-145.69;100.00;70483.19;5072672;28;20198;-77
2022/06/27 07:18:39;;;;;;;3.10;1.60;;;;;;;-145.69;100.00;70345.91;5072527;28;20195;-76
2022/06/27 07:21:08;;;;;;;2.22;1.35;;;;;;;-145.69;92.46;70292.19;5072550;28;20230;-77
2022/06/27 07:23:34;;;;;;;3.17;1.20;;;;;;;-145.69;96.69;70345.91;5072861;28;20591;-76
2022/06/27 07:26:01;;;;;;;4.20;0.90;;;;;;;-145.69;96.95;70357.84;5072712;28;20199;-76
2022/06/27 07:28:28;;;;;;;1.45;0.80;;;;;;;-145.69;99.63;70443.41;5072621;28;20206;-76
2022/06/27 07:30:58;;;;;;;1.58;0.80;;;;;;;-145.69;100.00;70459.31;5072644;28;20242;-76
2022/06/27 07:33:28;;;;;;;3.97;1.02;;;;;;;-145.69;100.00;70471.25;5072338;28;20661;-76
2022/06/27 07:36:05;;;;;;;4.40;0.73;;;;;;;-145.69;100.00;70483.19;5072755;28;20285;-76
2022/06/27 07:38:38;;;;;;;1.40;1.10;;;;;;;-145.69;100.00;70459.31;5072588;28;20199;-76
2022/06/27 07:41:09;;;;;;;2.15;0.88;;;;;;;-145.69;100.00;70423.50;5072057;28;20221;-76
2022/06/27 07:43:43;;;;;;;0.90;0.77;;;;;;;-145.69;100.00;70459.31;5072383;28;20674;-77
2022/06/27 07:46:09;;;;;;;1.63;0.60;;;;;;;-145.69;100.00;70487.16;5072564;28;20202;-76
2022/06/27 07:48:36;;;;;;;1.48;0.60;;;;;;;-145.69;100.00;70568.72;5072132;28;20284;-76
2022/06/27 07:51:07;;;;;;;2.35;0.70;;;;;;;-145.69;100.00;70554.81;5072541;28;20534;-76
2022/06/27 07:53:37;;;;;;;1.15;0.73;;;;;;;-145.69;100.00;70536.91;5072452;28;20206;-76
2022/06/27 07:56:11;;;;;;;1.58;0.57;;;;;;;-145.69;100.00;70566.75;5072331;28;20352;-76
2022/06/27 07:58:38;;;;;;;1.48;0.70;;;;;;;-145.69;100.00;70519.00;5072278;28;20669;-76
2022/06/27 08:01:06;;;;;;;0.80;0.60;;;;;;;-145.69;100.00;70574.69;5072100;28;20779;-75
2022/06/27 08:03:44;;;;;;;0.50;0.50;;;;;;;-145.69;100.00;70487.16;5072362;28;20195;-76
2022/06/27 08:06:17;;;;;;;0.70;0.57;;;;;;;-145.69;100.00;70564.75;5072295;28;20237;-75
2022/06/27 08:08:49;;;;;;;1.50;0.60;;;;;;;-145.69;100.00;70582.66;5074689;28;20195;-76
2022/06/27 08:11:20;;;;;;;4.25;0.80;;;;;;;-145.69;100.00;70638.34;5076046;28;20213;-77
2022/06/27 08:13:58;;;;;;;3.03;0.63;;;;;;;-145.69;100.00;70668.19;5075671;28;20258;-76
2022/06/27 08:16:27;;;;;;;1.10;0.80;;;;;;;-145.69;100.00;70636.38;5075560;28;20487;-77
2022/06/27 08:18:55;;;;;;;2.50;0.70;;;;;;;-145.69;100.00;70672.19;5075346;28;20206;-76
2022/06/27 08:21:25;;;;;;;9.48;1.10;;;;;;;-145.69;100.00;70702.03;5075406;28;20262;-77
2022/06/27 08:23:56;;;;;;;0.98;0.73;;;;;;;-145.69;100.00;70741.81;5075548;28;20190;-77
2022/06/27 08:26:24;;;;;;;0.85;0.70;;;;;;;-145.69;100.00;70719.94;5075692;28;20203;-77
2022/06/27 08:28:52;;;;;;;0.85;0.85;;;;;;;-145.69;100.00;70694.06;5075547;28;20198;-76
2022/06/27 08:31:19;;;;;;;0.80;0.80;;;;;;;-145.69;100.00;70654.28;5075619;28;20209;-76
2022/06/27 08:33:49;;;;;;;2.03;0.90;;;;;;;-145.69;100.00;70664.22;5075715;28;20199;-77
2022/06/27 08:36:17;;;;;;;2.85;0.80;;;;;;;-145.69;100.00;70686.09;5075562;28;20199;-77
2022/06/27 08:38:50;;;;;;;0.68;0.68;;;;;;;-145.69;100.00;70638.34;5075443;28;20199;-78
2022/06/27 08:41:20;;;;;;;0.68;0.60;;;;;;;-145.69;100.00;70628.41;5075349;28;20317;-77
2022/06/27 08:43:51;;;;;;;2.90;0.77;;;;;;;-145.69;100.00;70706.00;5075186;28;20206;-80
2022/06/27 08:46:18;;;;;;;0.90;0.73;;;;;;;-145.69;100.00;70717.94;5074934;28;20199;-77
2022/06/27 08:48:47;;;;;;;1.30;0.73;;;;;;;-145.69;100.00;70708.00;5075121;28;20284;-78
2022/06/27 08:51:14;;;;;;;2.08;0.90;;;;;;;-145.69;100.00;70682.13;5055177;28;20257;-77
2022/06/27 08:53:41;;;;;;;1.38;0.80;;;;;;;-145.69;100.00;70596.59;5055149;28;20204;-78
2022/06/27 08:56:12;;;;;;;1.67;0.63;;;;;;;-145.69;100.00;70546.84;5054954;28;20207;-78
2022/06/27 08:58:40;;;;;;;1.88;0.50;;;;;;;-145.69;100.00;70584.66;5055898;28;20272;-77
2022/06/27 09:01:09;;;;;;;0.70;0.70;;;;;;;-145.69;100.00;70622.44;5055867;28;20227;-80
2022/06/27 09:03:36;;;;;;;0.63;0.63;;;;;;;-145.69;100.00;70658.25;5054962;28;20540;-78
2022/06/27 09:06:04;;;;;;;1.15;1.02;;;;;;;-145.69;100.00;70642.34;5054924;28;20200;-77
2022/06/27 09:08:33;;;;;;;1.90;0.80;;;;;;;-145.69;100.00;70624.44;5059462;28;20649;-77
2022/06/27 09:11:04;;;;;;;2.03;0.73;;;;;;;-145.69;100.00;70560.78;5074472;28;20195;-76
2022/06/27 09:13:32;;;;;;;1.27;0.70;;;;;;;-145.69;100.00;70564.75;5074735;28;20224;-77
2022/06/27 09:16:01;;;;;;;0.68;0.68;;;;;;;-145.69;98.40;70511.03;5074677;28;20607;-77
2022/06/27 09:18:30;;;;;;;0.88;0.70;;;;;;;-145.69;96.79;70536.91;5074312;28;20206;-78
2022/06/27 09:20:59;;;;;;;1.23;0.80;;;;;;;-145.69;95.65;70517.00;5074723;28;20226;-77
2022/06/27 09:23:35;;;;;;;1.88;0.80;;;;;;;-145.69;96.48;70528.94;5074317;28;20714;-77
2022/06/27 09:26:06;;;;;;;0.82;0.60;;;;;;;-145.69;91.01;70507.06;5074383;28;20285;-79
2022/06/27 09:28:46;;;;;;;0.77;0.60;;;;;;;-145.69;92.45;70493.13;5074457;28;20202;-77
2022/06/27 09:31:25;;;;;;;1.45;0.90;;;;;;;-145.69;89.21;70435.44;5074510;28;20218;-77
2022/06/27 09:34:03;;;;;;;1.02;0.57;;;;;;;-145.69;85.39;70367.81;5074854;28;20229;-77
2022/06/27 09:36:31;;;;;;;1.77;0.80;;;;;;;-145.69;84.91;70371.78;5074212;28;20207;-79
2022/06/27 09:38:59;;;;;;;1.42;0.63;;;;;;;-145.69;87.73;70409.56;5073968;28;20213;-77
2022/06/27 09:41:30;;;;;;;3.67;0.80;;;;;;;-145.69;86.68;70423.50;5073744;28;20704;-77
2022/06/27 09:44:03;;;;;;;1.13;0.50;;;;;;;-145.69;85.46;70399.63;5074035;28;20281;-78
2022/06/27 09:46:35;;;;;;;3.15;0.80;;;;;;;-145.69;88.45;70509.03;5073661;28;20257;-78
2022/06/27 09:49:08;;;;;;;1.95;0.75;;;;;;;-145.69;96.60;70548.84;5074065;28;20547;-77
2022/06/27 09:51:43;;;;;;;0.85;0.60;;;;;;;-145.69;94.80;70554.81;5073132;28;20944;-77
2022/06/27 09:54:11;;;;;;;0.90;0.80;;;;;;;-145.69;95.69;70542.88;5074050;28;20194;-77
2022/06/27 09:56:41;;;;;;;3.05;0.70;;;;;;;-145.69;92.48;70505.06;5073646;28;20237;-77
2022/06/27 09:59:11;;;;;;;3.28;1.00;;;;;;;-145.69;93.42;70538.88;5073565;28;20214;-77
2022/06/27 10:01:41;;;;;;;1.70;0.87;;;;;;;-145.69;92.06;70574.69;5072750;28;20492;-76
2022/06/27 10:04:09;;;;;;;1.80;0.90;;;;;;;-145.69;88.04;70491.13;5073563;28;20290;-79
2022/06/27 10:06:39;;;;;;;1.52;0.68;;;;;;;-145.69;87.50;70497.09;5073588;28;20198;-78
2022/06/27 10:09:08;;;;;;;0.88;0.70;;;;;;;-145.69;86.68;70455.34;5073437;28;20233;-78
2022/06/27 10:11:36;;;;;;;2.22;0.88;;;;;;;-145.69;89.16;70497.09;5073293;28;20203;-77
2022/06/27 10:14:22;;;;;;;1.05;0.60;;;;;;;-145.69;92.27;70546.84;5073272;28;20199;-77
2022/06/27 10:17:10;;;;;;;3.60;0.73;;;;;;;-145.69;92.72;70596.59;5073102;28;20209;-76
2022/06/27 10:19:37;;;;;;;1.45;0.73;;;;;;;-145.69;91.88;70558.78;5073208;28;20461;-76
2022/06/27 10:22:03;;;;;;;0.68;0.60;;;;;;;-145.69;94.72;70626.41;5073019;28;20610;-76
2022/06/27 10:24:34;;;;;;;3.65;1.15;;;;;;;-145.69;98.17;70662.22;5073374;28;20289;-77
2022/06/27 10:27:04;;;;;;;3.08;0.80;;;;;;;-145.69;100.00;70666.22;5072778;28;20195;-76
2022/06/27 10:29:41;;;;;;;1.75;0.70;;;;;;;-145.69;100.00;70690.09;5072825;28;20689;-77
2022/06/27 10:32:28;;;;;;;2.72;0.93;;;;;;;-145.69;100.00;70735.84;5073058;28;20197;-78
2022/06/27 10:35:23;;;;;;;1.13;0.60;;;;;;;-145.69;100.00;70753.75;5053036;28;20199;-81
2022/06/27 10:37:50;;;;;;;0.93;0.70;;;;;;;-145.69;100.00;70785.59;5057530;28;20291;-78
2022/06/27 10:40:44;;;;;;;3.90;0.90;;;;;;;-145.69;100.00;70773.66;5053125;28;20670;-77
2022/06/27 10:43:45;;;;;;;1.20;0.80;;;;;;;-145.69;100.00;70717.94;5053448;28;20693;-79
2022/06/27 10:46:43;;;;;;;1.95;0.98;;;;;;;-145.69;100.00;70713.97;5052927;28;20654;-79
2022/06/27 10:49:26;;;;;;;2.50;0.80;;;;;;;-145.69;100.00;70719.94;5052886;28;20210;-81
2022/06/27 10:52:24;;;;;;;1.80;0.70;;;;;;;-145.69;98.03;70664.22;5053132;28;20195;-82
2022/06/27 10:54:53;;;;;;;1.20;0.90;;;;;;;-145.69;97.47;70690.09;5052837;28;20650;-77
2022/06/27 10:57:40;;;;;;;2.65;1.02;;;;;;;-145.69;97.84;70684.13;5055265;28;20212;-79
2022/06/27 11:00:10;;;;;;;1.25;0.90;;;;;;;-145.69;95.87;70682.13;5052933;28;20207;-79
2022/06/27 11:02:37;;;;;;;1.30;0.60;;;;;;;-145.69;94.74;70648.31;5063014;28;20226;-80
2022/06/27 11:05:06;;;;;;;1.23;0.80;;;;;;;-145.69;94.33;70650.28;5072897;28;20206;-79
2022/06/27 11:07:34;;;;;;;0.98;0.70;;;;;;;-145.69;97.06;70688.09;5072551;28;20665;-79
2022/06/27 11:10:01;;;;;;;1.00;0.80;;;;;;;-145.69;92.94;70554.81;5072613;28;20228;-79
2022/06/27 11:12:36;;;;;;;0.80;0.80;;;;;;;-145.69;85.41;70505.06;5072128;28;20683;-80
2022/06/27 11:15:05;;;;;;;1.38;0.70;;;;;;;-145.69;84.97;70507.06;5052548;28;20203;-85
2022/06/27 11:17:41;;;;;;;1.75;0.90;;;;;;;-145.69;84.87;70455.34;5052865;28;20207;-80
2022/06/27 11:20:16;;;;;;;0.85;0.77;;;;;;;-145.69;82.48;70473.22;5052635;28;20207;-81
2022/06/27 11:22:45;;;;;;;1.15;0.88;;;;;;;-145.69;84.86;70473.22;5052482;28;20768;-78